createdAt,value
2022-09-07T00:01:26.130Z,16.89
2022-09-07T00:03:56.083Z,16.99
2022-09-07T00:06:23.052Z,17.01
2022-09-07T00:08:49.456Z,17.01
2022-09-07T00:11:17.485Z,17.11
2022-09-07T00:13:45.193Z,17.10
2022-09-07T00:16:13.225Z,17.08
2022-09-07T00:18:43.803Z,17.05
2022-09-07T00:21:12.659Z,17.13
2022-09-07T00:23:39.870Z,17.03
2022-09-07T00:26:07.856Z,16.94
2022-09-07T00:28:34.719Z,17.02
2022-09-07T00:31:01.263Z,16.94
2022-09-07T00:33:27.920Z,16.79
2022-09-07T00:35:54.404Z,16.62
2022-09-07T00:38:21.202Z,16.54
2022-09-07T00:40:47.617Z,16.61
2022-09-07T00:43:16.416Z,16.31
2022-09-07T00:45:42.968Z,16.32
2022-09-07T00:48:16.910Z,16.22
2022-09-07T00:51:06.313Z,16.17
2022-09-07T00:53:44.923Z,16.00
2022-09-07T00:56:11.841Z,16.10
2022-09-07T00:58:39.962Z,16.02
2022-09-07T01:01:06.809Z,16.09
2022-09-07T01:03:36.472Z,15.96
2022-09-07T01:06:09.743Z,15.99
2022-09-07T01:08:36.253Z,15.86
2022-09-07T01:11:02.887Z,15.88
2022-09-07T01:13:29.325Z,15.83
2022-09-07T01:16:00.456Z,15.69
2022-09-07T01:18:39.066Z,15.65
2022-09-07T01:21:05.387Z,15.65
2022-09-07T01:23:57.557Z,15.53
2022-09-07T01:26:26.898Z,15.57
2022-09-07T01:28:59.126Z,15.41
2022-09-07T01:31:34.809Z,15.53
2022-09-07T01:34:07.493Z,15.50
2022-09-07T01:36:37.437Z,15.36
2022-09-07T01:39:05.437Z,15.42
2022-09-07T01:41:40.793Z,15.57
2022-09-07T01:44:10.214Z,15.75
2022-09-07T01:46:59.928Z,15.66
2022-09-07T01:49:38.971Z,15.86
2022-09-07T01:52:12.564Z,15.87
2022-09-07T01:54:40.911Z,15.97
2022-09-07T01:57:16.491Z,16.06
2022-09-07T01:59:45.526Z,16.07
2022-09-07T02:02:14.783Z,16.24
2022-09-07T02:04:50.285Z,16.18
2022-09-07T02:07:24.862Z,16.27
2022-09-07T02:09:58.302Z,16.31
2022-09-07T02:12:36.876Z,16.27
2022-09-07T02:15:06.211Z,16.33
2022-09-07T02:17:47.711Z,16.26
2022-09-07T02:20:23.135Z,16.25
2022-09-07T02:22:53.481Z,16.14
2022-09-07T02:25:26.122Z,15.98
2022-09-07T02:27:59.665Z,15.78
2022-09-07T02:30:26.096Z,15.76
2022-09-07T02:32:52.573Z,15.52
2022-09-07T02:35:18.963Z,15.39
2022-09-07T02:37:45.548Z,15.25
2022-09-07T02:40:12.722Z,15.19
2022-09-07T02:42:39.497Z,15.21
2022-09-07T02:45:07.966Z,15.16
2022-09-07T02:48:02.254Z,15.05
2022-09-07T02:50:31.687Z,15.22
2022-09-07T02:53:10.266Z,15.17
2022-09-07T02:55:36.592Z,15.05
2022-09-07T02:58:02.922Z,15.03
2022-09-07T03:00:31.982Z,14.97
2022-09-07T03:03:09.615Z,15.06
2022-09-07T03:05:42.453Z,15.00
2022-09-07T03:08:11.193Z,15.07
2022-09-07T03:10:38.645Z,15.05
2022-09-07T03:13:05.079Z,15.06
2022-09-07T03:15:31.547Z,15.08
2022-09-07T03:17:57.968Z,15.03
2022-09-07T03:20:24.394Z,14.98
2022-09-07T03:22:51.677Z,15.04
2022-09-07T03:25:18.538Z,15.06
2022-09-07T03:27:44.909Z,14.96
2022-09-07T03:30:11.673Z,15.03
2022-09-07T03:32:38.945Z,15.01
2022-09-07T03:35:06.838Z,14.91
2022-09-07T03:37:35.485Z,15.01
2022-09-07T03:40:02.046Z,15.10
2022-09-07T03:42:28.509Z,15.37
2022-09-07T03:44:54.877Z,15.46
2022-09-07T03:47:21.324Z,15.53
2022-09-07T03:49:48.889Z,15.62
2022-09-07T03:52:15.251Z,15.66
2022-09-07T03:54:41.663Z,15.74
2022-09-07T03:57:08.245Z,15.74
2022-09-07T03:59:35.235Z,15.75
2022-09-07T04:02:02.249Z,15.81
2022-09-07T04:04:28.844Z,15.84
2022-09-07T04:06:55.191Z,15.81
2022-09-07T04:09:21.671Z,15.84
2022-09-07T04:11:48.033Z,15.79
2022-09-07T04:14:14.450Z,15.66
2022-09-07T04:16:41.034Z,15.74
2022-09-07T04:19:07.479Z,15.79
2022-09-07T04:21:34.335Z,15.58
2022-09-07T04:24:00.718Z,15.57
2022-09-07T04:26:31.811Z,15.38
2022-09-07T04:28:58.531Z,15.28
2022-09-07T04:31:25.228Z,15.27
2022-09-07T04:33:52.080Z,15.15
2022-09-07T04:36:19.269Z,15.14
2022-09-07T04:38:45.861Z,15.01
2022-09-07T04:41:16.583Z,14.88
2022-09-07T04:43:43.406Z,14.88
2022-09-07T04:46:21.766Z,14.78
2022-09-07T04:48:52.692Z,14.94
2022-09-07T04:51:19.768Z,14.80
2022-09-07T04:53:48.114Z,14.75
2022-09-07T04:56:16.973Z,14.72
2022-09-07T04:58:43.861Z,14.75
2022-09-07T05:01:10.725Z,14.77
2022-09-07T05:03:38.040Z,14.82
2022-09-07T05:06:04.865Z,14.68
2022-09-07T05:08:35.394Z,14.59
2022-09-07T05:11:01.799Z,14.61
2022-09-07T05:13:29.377Z,14.45
2022-09-07T05:15:55.916Z,14.76
2022-09-07T05:18:22.306Z,14.66
2022-09-07T05:20:48.657Z,14.65
2022-09-07T05:23:15.058Z,14.68
2022-09-07T05:25:45.404Z,14.63
2022-09-07T05:28:15.887Z,14.69
2022-09-07T05:36:17.797Z,14.75
2022-09-07T05:38:44.228Z,14.78
2022-09-07T05:41:15.223Z,15.02
2022-09-07T05:46:28.972Z,15.20
2022-09-07T05:48:56.462Z,15.41
2022-09-07T05:51:22.867Z,15.40
2022-09-07T05:53:50.551Z,15.46
2022-09-07T05:56:16.954Z,15.49
2022-09-07T05:58:47.938Z,15.57
2022-09-07T06:01:14.794Z,15.59
2022-09-07T06:03:41.936Z,15.66
2022-09-07T06:06:09.992Z,15.71
2022-09-07T06:08:37.413Z,15.74
2022-09-07T06:11:07.702Z,15.73
2022-09-07T06:13:34.204Z,15.70
2022-09-07T06:16:04.994Z,15.67
2022-09-07T06:18:35.856Z,15.74
2022-09-07T06:21:06.515Z,15.78
2022-09-07T06:23:33.287Z,15.70
2022-09-07T06:26:00.108Z,15.62
2022-09-07T06:28:30.450Z,15.62
2022-09-07T06:31:03.924Z,15.54
2022-09-07T06:33:30.385Z,15.58
2022-09-07T06:36:00.933Z,15.66
2022-09-07T06:38:32.009Z,15.59
2022-09-07T06:43:48.706Z,15.78
2022-09-07T06:49:02.020Z,15.82
2022-09-07T06:51:29.541Z,15.86
2022-09-07T06:56:43.630Z,15.93
2022-09-07T06:59:10.643Z,15.81
2022-09-07T07:01:37.324Z,15.89
2022-09-07T07:04:03.670Z,15.85
2022-09-07T07:06:37.050Z,15.98
2022-09-07T07:09:04.689Z,16.01
2022-09-07T07:11:31.176Z,16.02
2022-09-07T07:13:57.935Z,16.08
2022-09-07T07:16:24.560Z,16.07
2022-09-07T07:18:54.383Z,16.19
2022-09-07T07:21:20.759Z,16.23
2022-09-07T07:23:51.100Z,16.33
2022-09-07T07:26:18.669Z,16.41
2022-09-07T07:29:02.941Z,16.47
2022-09-07T07:31:32.564Z,16.49
2022-09-07T07:33:59.097Z,16.62
2022-09-07T07:36:26.822Z,16.65
2022-09-07T07:39:02.051Z,16.76
2022-09-07T07:44:19.804Z,16.92
2022-09-07T07:46:50.143Z,16.92
2022-09-07T07:49:16.704Z,16.92
2022-09-07T07:54:29.438Z,17.00
2022-09-07T07:56:55.938Z,17.05
2022-09-07T07:59:22.348Z,17.14
2022-09-07T08:01:49.065Z,17.15
2022-09-07T08:04:15.557Z,17.18
2022-09-07T08:06:42.531Z,17.27
2022-09-07T08:09:08.865Z,17.35
2022-09-07T08:11:35.410Z,17.40
2022-09-07T08:14:05.805Z,17.41
2022-09-07T08:16:33.020Z,17.51
2022-09-07T08:18:59.421Z,17.48
2022-09-07T08:21:25.702Z,17.53
2022-09-07T08:23:52.009Z,17.56
2022-09-07T08:26:18.304Z,17.57
2022-09-07T08:28:45.522Z,17.62
2022-09-07T08:31:12.686Z,17.70
2022-09-07T08:33:39.400Z,17.76
2022-09-07T08:36:07.665Z,17.78
2022-09-07T08:38:35.147Z,17.84
2022-09-07T08:41:02.506Z,17.79
2022-09-07T08:43:29.188Z,17.88
2022-09-07T08:46:00.168Z,17.91
2022-09-07T08:48:32.143Z,17.97
2022-09-07T08:51:06.696Z,18.05
2022-09-07T08:53:35.599Z,18.12
2022-09-07T08:56:04.599Z,18.10
2022-09-07T08:58:48.785Z,18.12
2022-09-07T09:01:33.255Z,18.19
2022-09-07T09:04:17.236Z,18.22
2022-09-07T09:07:03.175Z,18.21
2022-09-07T09:09:47.011Z,18.26
2022-09-07T09:12:16.053Z,18.29
2022-09-07T09:15:00.791Z,18.33
2022-09-07T09:17:43.785Z,18.34
2022-09-07T09:20:10.136Z,18.42
2022-09-07T09:22:36.509Z,18.46
2022-09-07T09:25:21.429Z,18.50
2022-09-07T09:27:48.418Z,18.53
2022-09-07T09:30:16.633Z,18.64
2022-09-07T09:32:45.343Z,18.72
2022-09-07T09:35:11.615Z,18.80
2022-09-07T09:37:38.974Z,18.82
2022-09-07T09:40:07.806Z,18.81
2022-09-07T09:42:34.886Z,18.83
2022-09-07T09:45:06.178Z,18.82
2022-09-07T09:47:35.944Z,18.84
2022-09-07T09:50:07.585Z,18.89
2022-09-07T09:52:47.683Z,18.92
2022-09-07T09:55:40.900Z,18.99
2022-09-07T10:01:30.985Z,19.02
2022-09-07T10:03:59.591Z,19.05
2022-09-07T10:06:27.776Z,19.07
2022-09-07T10:09:01.718Z,19.05
2022-09-07T10:14:31.190Z,19.09
2022-09-07T10:16:58.767Z,19.17
2022-09-07T10:19:35.526Z,19.15
2022-09-07T10:22:19.524Z,19.14
2022-09-07T10:24:45.963Z,19.16
2022-09-07T10:27:27.519Z,19.17
2022-09-07T10:29:54.176Z,19.21
2022-09-07T10:32:23.328Z,19.28
2022-09-07T10:34:49.584Z,19.25
2022-09-07T10:37:21.964Z,19.33
2022-09-07T10:40:08.597Z,19.33
2022-09-07T10:43:20.551Z,19.35
2022-09-07T10:45:39.764Z,19.39
2022-09-07T10:48:14.049Z,19.46
2022-09-07T10:51:05.062Z,19.48
2022-09-07T10:53:42.163Z,19.51
2022-09-07T10:56:26.563Z,19.51
2022-09-07T10:59:18.963Z,19.56
2022-09-07T11:01:52.927Z,19.56
2022-09-07T11:04:22.348Z,19.61
2022-09-07T11:06:50.798Z,19.61
2022-09-07T11:09:30.377Z,19.64
2022-09-07T11:12:05.491Z,19.64
2022-09-07T11:14:44.470Z,19.62
2022-09-07T11:17:23.380Z,19.64
2022-09-07T11:19:57.552Z,19.65
2022-09-07T11:22:29.792Z,19.67
2022-09-07T11:27:54.206Z,19.72
2022-09-07T11:30:21.956Z,19.75
2022-09-07T11:33:03.200Z,19.78
2022-09-07T11:35:47.271Z,19.82
2022-09-07T11:38:19.655Z,19.85
2022-09-07T11:41:09.280Z,19.83
2022-09-07T11:43:38.096Z,19.90
2022-09-07T11:46:07.624Z,19.88
2022-09-07T11:48:43.530Z,19.79
2022-09-07T11:51:32.928Z,19.89
2022-09-07T11:54:12.961Z,19.93
2022-09-07T11:56:45.735Z,19.97
2022-09-07T11:59:15.005Z,19.95
2022-09-07T12:01:47.315Z,19.94
2022-09-07T12:04:34.469Z,19.92
2022-09-07T12:07:03.751Z,19.71
2022-09-07T12:09:49.012Z,19.64
2022-09-07T12:12:38.209Z,19.71
2022-09-07T12:15:10.507Z,19.68
2022-09-07T12:17:55.340Z,19.59
2022-09-07T12:20:26.042Z,19.69
2022-09-07T12:23:03.688Z,19.82
2022-09-07T12:25:31.768Z,19.82
2022-09-07T12:27:58.253Z,19.66
2022-09-07T12:30:24.526Z,19.44
2022-09-07T12:32:54.013Z,19.49
2022-09-07T12:35:26.846Z,19.46
2022-09-07T12:37:54.017Z,19.30
2022-09-07T12:40:29.740Z,19.36
2022-09-07T12:43:14.478Z,19.35
2022-09-07T12:45:40.847Z,19.36
2022-09-07T12:48:13.275Z,19.29
2022-09-07T12:50:42.753Z,19.42
2022-09-07T12:53:24.043Z,19.30
2022-09-07T12:56:18.013Z,19.42
2022-09-07T12:58:56.839Z,19.53
2022-09-07T13:01:23.187Z,19.63
2022-09-07T13:04:08.182Z,19.60
2022-09-07T13:09:40.003Z,19.83
2022-09-07T13:15:40.740Z,19.88
2022-09-07T13:18:12.533Z,19.87
2022-09-07T13:20:41.481Z,19.93
2022-09-07T13:23:22.277Z,19.96
2022-09-07T13:25:52.820Z,20.02
2022-09-07T13:28:25.369Z,20.04
2022-09-07T13:31:00.081Z,20.06
2022-09-07T13:33:29.744Z,20.12
2022-09-07T13:36:00.687Z,20.13
2022-09-07T13:38:27.799Z,20.19
2022-09-07T13:40:57.732Z,20.20
2022-09-07T13:43:24.500Z,20.18
2022-09-07T13:45:53.706Z,20.28
2022-09-07T13:48:32.044Z,20.23
2022-09-07T13:51:10.292Z,20.31
2022-09-07T13:54:02.899Z,20.34
2022-09-07T13:56:38.095Z,20.31
2022-09-07T13:59:25.339Z,20.33
2022-09-07T14:01:52.052Z,20.37
2022-09-07T14:04:29.581Z,20.33
2022-09-07T14:07:03.476Z,20.28
2022-09-07T14:09:30.053Z,20.28
2022-09-07T14:11:56.360Z,20.30
2022-09-07T14:14:24.318Z,20.29
2022-09-07T14:16:59.751Z,20.17
2022-09-07T14:19:26.244Z,20.18
2022-09-07T14:22:00.291Z,20.20
2022-09-07T14:24:31.594Z,20.24
2022-09-07T14:26:58.457Z,20.27
2022-09-07T14:29:36.901Z,20.26
2022-09-07T14:32:03.934Z,20.21
2022-09-07T14:34:32.559Z,20.17
2022-09-07T14:37:01.716Z,20.17
2022-09-07T14:39:29.844Z,20.16
2022-09-07T14:41:57.461Z,20.08
2022-09-07T14:44:27.419Z,20.01
2022-09-07T14:46:56.821Z,20.08
2022-09-07T14:49:23.778Z,20.07
2022-09-07T14:51:50.402Z,20.03
2022-09-07T14:54:21.556Z,20.01
2022-09-07T14:57:06.488Z,20.02
2022-09-07T14:59:37.337Z,20.12
2022-09-07T15:02:19.265Z,20.12
2022-09-07T15:04:49.844Z,20.16
2022-09-07T15:07:28.527Z,20.13
2022-09-07T15:09:55.007Z,20.17
2022-09-07T15:12:38.346Z,20.16
2022-09-07T15:15:25.096Z,20.17
2022-09-07T15:17:52.742Z,20.17
2022-09-07T15:20:37.091Z,20.12
2022-09-07T15:23:09.520Z,20.15
2022-09-07T15:25:36.273Z,20.16
2022-09-07T15:28:02.937Z,20.12
2022-09-07T15:30:29.301Z,20.09
2022-09-07T15:32:57.309Z,20.11
2022-09-07T15:35:24.473Z,20.09
2022-09-07T15:38:59.511Z,20.10
2022-09-07T15:41:10.560Z,20.08
2022-09-07T15:43:32.737Z,20.03
2022-09-07T15:45:59.352Z,20.02
2022-09-07T15:48:26.245Z,19.98
2022-09-07T15:51:00.248Z,19.95
2022-09-07T15:56:13.310Z,19.84
2022-09-07T15:58:39.606Z,19.75
2022-09-07T16:03:56.315Z,19.82
2022-09-07T16:06:23.741Z,19.70
2022-09-07T16:08:51.351Z,19.70
2022-09-07T16:11:25.623Z,19.60
2022-09-07T16:13:56.144Z,19.54
2022-09-07T16:16:22.961Z,19.50
2022-09-07T16:18:49.384Z,19.47
2022-09-07T16:21:16.159Z,19.50
2022-09-07T16:23:44.715Z,19.43
2022-09-07T16:26:11.874Z,19.27
2022-09-07T16:28:40.357Z,19.42
2022-09-07T16:31:08.739Z,19.21
2022-09-07T16:33:38.172Z,19.26
2022-09-07T16:36:09.570Z,19.30
2022-09-07T16:38:51.396Z,19.24
2022-09-07T16:41:20.016Z,19.07
2022-09-07T16:43:46.598Z,19.11
2022-09-07T16:46:14.397Z,19.00
2022-09-07T16:48:40.865Z,18.87
2022-09-07T16:51:07.442Z,18.89
2022-09-07T16:53:35.360Z,18.90
2022-09-07T16:56:06.264Z,18.94
2022-09-07T16:58:37.218Z,18.93
2022-09-07T17:01:05.494Z,18.96
2022-09-07T17:03:32.075Z,18.93
2022-09-07T17:06:02.135Z,18.98
2022-09-07T17:08:28.577Z,19.04
2022-09-07T17:10:59.335Z,19.05
2022-09-07T17:13:25.657Z,19.18
2022-09-07T17:15:51.992Z,19.23
2022-09-07T17:18:18.930Z,19.25
2022-09-07T17:20:58.555Z,19.30
2022-09-07T17:23:25.346Z,19.21
2022-09-07T17:25:51.650Z,19.24
2022-09-07T17:28:17.997Z,19.25
2022-09-07T17:30:45.106Z,19.24
2022-09-07T17:33:11.652Z,19.21
2022-09-07T17:35:37.963Z,19.16
2022-09-07T17:39:14.442Z,19.07
2022-09-07T17:40:51.086Z,19.03
2022-09-07T17:46:07.377Z,18.84
2022-09-07T17:48:34.442Z,18.76
2022-09-07T17:51:04.906Z,18.63
2022-09-07T17:53:31.263Z,18.53
2022-09-07T17:55:57.620Z,18.43
2022-09-07T17:58:23.963Z,18.35
2022-09-07T18:00:51.050Z,18.31
2022-09-07T18:03:17.464Z,18.25
2022-09-07T18:05:44.030Z,18.21
2022-09-07T18:08:11.231Z,18.16
2022-09-07T18:13:33.711Z,17.95
2022-09-07T18:16:09.324Z,18.11
2022-09-07T18:18:35.735Z,17.94
2022-09-07T18:21:02.063Z,18.07
2022-09-07T18:23:29.190Z,17.94
2022-09-07T18:25:56.883Z,17.92
2022-09-07T18:31:10.863Z,17.96
2022-09-07T18:33:37.761Z,17.82
2022-09-07T18:36:05.883Z,17.85
2022-09-07T18:38:34.372Z,17.81
2022-09-07T18:41:05.399Z,17.80
2022-09-07T18:43:32.650Z,17.78
2022-09-07T18:46:03.624Z,17.75
2022-09-07T18:48:30.731Z,17.57
2022-09-07T18:50:57.130Z,17.64
2022-09-07T18:53:23.661Z,17.62
2022-09-07T18:55:50.890Z,17.67
2022-09-07T18:58:17.583Z,17.83
2022-09-07T19:00:45.038Z,17.87
2022-09-07T19:03:11.684Z,17.99
2022-09-07T19:05:53.387Z,17.96
2022-09-07T19:08:19.733Z,18.03
2022-09-07T19:10:46.034Z,18.15
2022-09-07T19:13:12.431Z,18.14
2022-09-07T19:15:38.795Z,18.16
2022-09-07T19:18:05.982Z,18.14
2022-09-07T19:20:33.357Z,18.19
2022-09-07T19:22:59.899Z,18.23
2022-09-07T19:25:26.204Z,18.31
2022-09-07T19:27:53.026Z,18.30
2022-09-07T19:30:19.448Z,18.33
2022-09-07T19:32:45.785Z,18.30
2022-09-07T19:35:12.144Z,18.41
2022-09-07T19:37:38.477Z,18.38
2022-09-07T19:40:05.078Z,18.08
2022-09-07T19:42:31.408Z,18.00
2022-09-07T19:44:57.871Z,17.83
2022-09-07T19:47:24.347Z,17.60
2022-09-07T19:49:52.152Z,17.59
2022-09-07T19:52:18.468Z,17.45
2022-09-07T19:54:45.624Z,17.42
2022-09-07T19:57:11.926Z,17.31
2022-09-07T19:59:38.234Z,17.24
2022-09-07T20:02:04.588Z,17.41
2022-09-07T20:04:30.979Z,17.36
2022-09-07T20:06:57.546Z,17.31
2022-09-07T20:09:24.730Z,17.21
2022-09-07T20:11:51.084Z,17.24
2022-09-07T20:14:19.027Z,17.28
2022-09-07T20:16:45.409Z,17.34
2022-09-07T20:19:14.652Z,17.29
2022-09-07T20:21:41.842Z,17.24
2022-09-07T20:24:08.252Z,17.15
2022-09-07T20:26:34.648Z,17.18
2022-09-07T20:29:23.745Z,17.17
2022-09-07T20:31:47.522Z,17.14
2022-09-07T20:34:14.069Z,17.06
2022-09-07T20:36:40.432Z,17.07
2022-09-07T20:39:07.115Z,17.11
2022-09-07T20:41:34.068Z,17.08
2022-09-07T20:44:01.333Z,16.98
2022-09-07T20:46:29.010Z,16.95
2022-09-07T20:48:55.839Z,16.98
2022-09-07T20:51:22.351Z,17.19
2022-09-07T20:53:49.247Z,17.21
2022-09-07T20:56:19.657Z,17.32
2022-09-07T20:58:46.943Z,17.39
2022-09-07T21:01:14.502Z,17.48
2022-09-07T21:03:48.545Z,17.56
2022-09-07T21:06:16.099Z,17.67
2022-09-07T21:08:43.582Z,17.72
2022-09-07T21:11:18.092Z,17.72
2022-09-07T21:13:44.458Z,17.72
2022-09-07T21:16:11.841Z,17.85
2022-09-07T21:18:38.816Z,17.85
2022-09-07T21:21:21.127Z,17.90
2022-09-07T21:23:48.043Z,17.85
2022-09-07T21:26:14.849Z,17.87
2022-09-07T21:28:41.197Z,17.86
2022-09-07T21:31:08.808Z,17.73
2022-09-07T21:33:35.817Z,17.82
2022-09-07T21:36:09.526Z,17.90
2022-09-07T21:38:36.639Z,17.81
2022-09-07T21:41:13.196Z,17.71
2022-09-07T21:43:39.803Z,17.77
2022-09-07T21:46:10.510Z,17.63
2022-09-07T21:48:37.257Z,17.54
2022-09-07T21:51:04.140Z,17.28
2022-09-07T21:53:30.673Z,17.19
2022-09-07T21:55:58.008Z,17.05
2022-09-07T21:58:24.917Z,16.96
2022-09-07T22:00:51.272Z,17.12
2022-09-07T22:03:17.966Z,17.33
2022-09-07T22:05:44.343Z,17.01
2022-09-07T22:08:10.844Z,16.97
2022-09-07T22:10:37.158Z,17.13
2022-09-07T22:13:03.450Z,17.03
2022-09-07T22:15:33.514Z,17.28
2022-09-07T22:17:59.809Z,16.99
2022-09-07T22:20:26.129Z,16.79
2022-09-07T22:22:52.435Z,16.85
2022-09-07T22:25:18.738Z,16.78
2022-09-07T22:27:45.160Z,16.77
2022-09-07T22:30:11.793Z,16.51
2022-09-07T22:32:38.159Z,16.47
2022-09-07T22:35:04.641Z,16.57
2022-09-07T22:37:30.970Z,16.76
2022-09-07T22:39:57.395Z,16.91
2022-09-07T22:42:23.754Z,16.86
2022-09-07T22:44:50.055Z,17.09
2022-09-07T22:47:16.366Z,16.79
2022-09-07T22:49:42.686Z,17.10
2022-09-07T22:52:08.988Z,17.20
2022-09-07T22:54:35.302Z,17.07
2022-09-07T22:57:01.593Z,17.21
2022-09-07T22:59:28.614Z,17.29
2022-09-07T23:01:54.953Z,17.28
2022-09-07T23:04:21.418Z,17.24
2022-09-07T23:06:47.819Z,17.24
2022-09-07T23:09:15.597Z,17.35
2022-09-07T23:11:42.425Z,17.41
2022-09-07T23:14:12.777Z,17.40
2022-09-07T23:16:39.376Z,17.39
2022-09-07T23:19:05.796Z,17.43
2022-09-07T23:21:32.718Z,17.38
2022-09-07T23:23:59.651Z,17.28
2022-09-07T23:26:27.650Z,17.37
2022-09-07T23:28:54.827Z,17.18
2022-09-07T23:31:21.637Z,16.95
2022-09-07T23:33:48.327Z,17.00
2022-09-07T23:36:14.664Z,16.96
2022-09-07T23:38:41.048Z,16.78
2022-09-07T23:41:07.376Z,16.92
2022-09-07T23:43:35.160Z,16.88
2022-09-07T23:46:01.616Z,16.64
2022-09-07T23:48:28.342Z,16.76
2022-09-07T23:50:54.739Z,16.71
2022-09-07T23:53:21.887Z,16.83
2022-09-07T23:55:49.026Z,16.86
2022-09-07T23:58:15.771Z,16.59
